createdAt,value
2018-08-09T08:32:54.687Z,57.70
2018-08-09T08:35:27.094Z,57.60
2018-08-09T08:37:59.761Z,57.80
2018-08-09T08:40:32.414Z,57.10
2018-08-09T08:43:05.051Z,57.30
2018-08-09T08:45:37.507Z,57.50
2018-08-09T08:48:09.911Z,58.00
2018-08-09T08:50:42.325Z,59.60
2018-08-09T08:53:14.740Z,60.00
2018-08-09T08:55:47.152Z,60.70
2018-08-09T08:58:19.570Z,61.40
2018-08-09T09:00:52.058Z,61.80
2018-08-09T09:03:24.414Z,62.60
2018-08-09T09:05:56.891Z,63.60
2018-08-09T09:08:29.366Z,64.40
2018-08-09T09:11:02.121Z,64.90
2018-08-09T09:13:34.879Z,65.10
2018-08-09T09:16:07.299Z,65.10
2018-08-09T09:18:40.553Z,64.10
2018-08-09T09:21:12.982Z,64.10
2018-08-09T09:23:45.707Z,63.70
2018-08-09T09:26:18.428Z,63.20
2018-08-09T09:28:51.163Z,62.70
2018-08-09T09:31:23.888Z,61.60
2018-08-09T09:33:56.633Z,60.70
2018-08-09T09:36:29.047Z,59.90
2018-08-09T09:39:01.462Z,60.10
2018-08-09T09:41:33.909Z,59.40
2018-08-09T09:44:06.359Z,58.50
2018-08-09T09:46:38.785Z,58.40
2018-08-09T09:49:11.198Z,57.90
2018-08-09T09:51:43.638Z,56.90
2018-08-09T09:54:16.037Z,57.70
2018-08-09T09:56:48.730Z,57.70
2018-08-09T09:59:21.144Z,57.80
2018-08-09T10:01:53.577Z,58.00
2018-08-09T10:04:26.529Z,58.40
2018-08-09T10:06:59.289Z,57.60
2018-08-09T10:09:31.653Z,57.40
2018-08-09T10:12:04.078Z,57.10
2018-08-09T10:14:36.501Z,56.00
2018-08-09T10:17:09.032Z,54.70
2018-08-09T10:19:41.479Z,53.80
2018-08-09T10:22:14.389Z,52.20
2018-08-09T10:24:46.864Z,51.40
2018-08-09T10:27:19.338Z,52.00
2018-08-09T10:29:52.025Z,53.60
2018-08-09T10:32:24.402Z,54.80
2018-08-09T10:34:56.819Z,55.60
2018-08-09T10:37:29.244Z,56.60
2018-08-09T10:40:01.707Z,57.40
2018-08-09T10:42:34.391Z,57.10
2018-08-09T10:45:06.862Z,58.00
2018-08-09T10:47:39.334Z,57.80
2018-08-09T10:50:11.722Z,57.90
2018-08-09T10:52:44.145Z,58.30
2018-08-09T10:55:16.537Z,58.40
2018-08-09T10:57:48.945Z,58.20
2018-08-09T11:00:21.337Z,58.40
2018-08-09T11:02:54.388Z,58.00
2018-08-09T11:05:26.769Z,57.80
2018-08-09T11:07:59.204Z,58.20
2018-08-09T11:10:31.909Z,57.50
2018-08-09T11:13:04.309Z,57.20
2018-08-09T11:15:37.023Z,57.20
2018-08-09T11:18:09.719Z,56.90
2018-08-09T11:20:42.420Z,56.60
2018-08-09T11:23:15.069Z,56.80
2018-08-09T11:25:47.471Z,57.00
2018-08-09T11:28:20.150Z,56.90
2018-08-09T11:30:52.545Z,57.20
2018-08-09T11:33:24.953Z,56.20
2018-08-09T11:35:57.365Z,54.50
2018-08-09T11:38:29.761Z,53.90
2018-08-09T11:41:02.419Z,53.90
2018-08-09T11:43:35.169Z,54.20
2018-08-09T11:46:07.578Z,53.40
2018-08-09T11:48:40.323Z,54.00
2018-08-09T11:51:12.737Z,53.50
2018-08-09T11:53:45.161Z,53.60
2018-08-09T11:56:17.642Z,53.10
2018-08-09T11:58:50.041Z,53.30
2018-08-09T12:01:22.505Z,53.80
2018-08-09T12:03:55.168Z,53.80
2018-08-09T12:06:27.582Z,53.90
2018-08-09T12:09:00.250Z,54.40
2018-08-09T12:11:32.677Z,54.40
2018-08-09T12:14:05.397Z,54.90
2018-08-09T12:16:38.037Z,55.50
2018-08-09T12:19:10.555Z,55.80
2018-08-09T12:21:42.963Z,56.00
2018-08-09T12:24:15.533Z,56.50
2018-08-09T12:26:48.208Z,57.00
2018-08-09T12:29:20.646Z,57.20
2018-08-09T12:31:53.333Z,57.80
2018-08-09T12:34:26.085Z,58.10
2018-08-09T12:36:58.494Z,58.20
2018-08-09T12:39:30.913Z,58.40
2018-08-09T12:42:03.332Z,58.50
2018-08-09T12:44:36.115Z,58.50
2018-08-09T12:47:08.864Z,59.00
2018-08-09T12:49:41.287Z,59.10
2018-08-09T12:52:13.702Z,59.60
2018-08-09T12:54:46.393Z,59.70
2018-08-09T12:57:19.053Z,60.00
2018-08-09T12:59:51.540Z,59.90
2018-08-09T13:02:24.213Z,59.20
2018-08-09T13:04:56.897Z,58.70
2018-08-09T13:07:29.410Z,60.20
2018-08-09T13:10:02.080Z,61.00
2018-08-09T13:12:34.707Z,60.70
2018-08-09T13:15:09.266Z,62.20
2018-08-09T13:17:42.653Z,62.30
2018-08-09T13:20:15.725Z,64.80
2018-08-09T13:22:48.127Z,67.20
2018-08-09T13:25:20.566Z,72.10
2018-08-09T13:27:53.286Z,73.30
2018-08-09T13:30:25.720Z,77.00
2018-08-09T13:32:58.444Z,78.00
2018-08-09T13:35:31.122Z,79.60
2018-08-09T13:38:03.561Z,80.40
2018-08-09T13:40:36.010Z,81.30
2018-08-09T13:43:08.423Z,82.00
2018-08-09T13:45:40.887Z,82.30
2018-08-09T13:48:13.293Z,83.10
2018-08-09T13:50:45.966Z,83.70
2018-08-09T13:53:18.645Z,84.20
2018-08-09T13:55:51.102Z,84.40
2018-08-09T13:58:23.820Z,84.30
2018-08-09T14:00:56.477Z,84.10
2018-08-09T14:03:29.176Z,84.40
2018-08-09T14:06:01.629Z,84.90
2018-08-09T14:08:34.057Z,84.40
2018-08-09T14:11:06.534Z,84.20
2018-08-09T14:13:39.052Z,84.20
2018-08-09T14:16:11.566Z,84.00
2018-08-09T14:18:43.978Z,83.50
2018-08-09T14:21:16.881Z,83.20
2018-08-09T14:23:49.309Z,83.10
2018-08-09T14:26:21.769Z,83.00
2018-08-09T14:28:54.510Z,81.70
2018-08-09T14:31:26.937Z,81.40
2018-08-09T14:33:59.361Z,81.70
2018-08-09T14:36:31.809Z,79.30
2018-08-09T14:39:07.873Z,77.80
2018-08-09T14:41:40.309Z,77.40
2018-08-09T14:44:12.763Z,76.60
2018-08-09T14:46:45.173Z,76.50
2018-08-09T14:49:17.683Z,76.80
2018-08-09T14:51:50.449Z,76.20
2018-08-09T14:54:22.889Z,76.30
2018-08-09T14:56:55.306Z,76.80
2018-08-09T14:59:27.738Z,77.90
2018-08-09T15:02:00.226Z,77.80
2018-08-09T15:04:32.732Z,79.20
2018-08-09T15:07:05.205Z,80.00
2018-08-09T15:09:37.680Z,80.60
2018-08-09T15:12:10.108Z,81.10
2018-08-09T15:14:42.533Z,82.20
2018-08-09T15:17:14.939Z,82.20
2018-08-09T15:19:47.361Z,82.60
2018-08-09T15:22:19.988Z,83.00
2018-08-09T15:24:52.413Z,83.80
2018-08-09T15:27:24.840Z,83.20
2018-08-09T15:29:57.267Z,83.30
2018-08-09T15:32:29.698Z,83.20
2018-08-09T15:35:02.114Z,82.90
2018-08-09T15:37:34.877Z,82.80
2018-08-09T15:40:08.055Z,82.30
2018-08-09T15:42:40.529Z,82.10
2018-08-09T15:45:13.651Z,82.70
2018-08-09T15:47:46.143Z,82.60
2018-08-09T15:50:18.493Z,82.00
2018-08-09T15:52:50.897Z,83.60
2018-08-09T15:55:23.310Z,84.70
2018-08-09T15:57:55.721Z,85.10
2018-08-09T16:00:28.163Z,85.40
2018-08-09T16:03:00.659Z,86.10
2018-08-09T16:05:33.317Z,86.40
2018-08-09T16:08:05.746Z,86.30
2018-08-09T16:10:38.389Z,86.80
2018-08-09T16:13:10.794Z,87.10
2018-08-09T16:15:43.217Z,87.40
2018-08-09T16:18:15.641Z,87.30
2018-08-09T16:20:48.060Z,87.70
2018-08-09T16:23:20.468Z,88.10
2018-08-09T16:25:52.889Z,88.00
2018-08-09T16:28:25.292Z,87.50
2018-08-09T16:30:57.709Z,86.70
2018-08-09T16:33:30.245Z,86.60
2018-08-09T16:36:02.719Z,86.80
2018-08-09T16:38:35.113Z,86.50
2018-08-09T16:41:07.513Z,86.70
2018-08-09T16:43:39.937Z,86.30
2018-08-09T16:46:12.676Z,86.50
2018-08-09T16:48:45.089Z,86.60
2018-08-09T16:51:17.517Z,86.70
2018-08-09T16:53:50.210Z,87.10
2018-08-09T16:56:23.265Z,87.40
2018-08-09T16:58:55.637Z,87.90
2018-08-09T17:01:28.057Z,88.00
2018-08-09T17:04:00.470Z,88.10
2018-08-09T17:06:32.886Z,87.30
2018-08-09T17:09:08.981Z,84.10
2018-08-09T17:11:41.736Z,81.00
2018-08-09T17:14:14.165Z,79.30
2018-08-09T17:16:46.810Z,75.90
2018-08-09T17:19:19.206Z,74.90
2018-08-09T17:21:52.243Z,74.30
2018-08-09T17:24:24.949Z,73.60
2018-08-09T17:26:57.366Z,73.70
2018-08-09T17:29:29.827Z,73.60
2018-08-09T17:32:02.268Z,73.70
2018-08-09T17:34:34.700Z,73.40
2018-08-09T17:37:07.105Z,73.00
2018-08-09T17:39:39.514Z,73.00
2018-08-09T17:42:11.950Z,73.20
2018-08-09T17:44:44.365Z,73.20
2018-08-09T17:47:17.086Z,73.30
2018-08-09T17:49:49.507Z,72.90
2018-08-09T17:52:22.383Z,72.70
2018-08-09T17:54:54.801Z,72.60
2018-08-09T17:57:27.225Z,72.60
2018-08-09T17:59:59.687Z,72.80
2018-08-09T18:02:32.111Z,73.00
2018-08-09T18:05:05.763Z,74.90
2018-08-09T18:07:38.288Z,75.90
2018-08-09T18:10:15.904Z,75.80
2018-08-09T18:12:48.370Z,75.90
2018-08-09T18:15:21.189Z,75.30
2018-08-09T18:17:53.693Z,75.90
2018-08-09T18:20:26.114Z,76.30
2018-08-09T18:22:58.925Z,76.60
2018-08-09T18:25:31.704Z,77.00
2018-08-09T18:28:04.375Z,76.90
2018-08-09T18:30:37.370Z,76.30
2018-08-09T18:33:09.825Z,76.50
2018-08-09T18:35:42.517Z,76.80
2018-08-09T18:38:14.966Z,76.70
2018-08-09T18:40:47.373Z,77.10
2018-08-09T18:43:19.835Z,77.30
2018-08-09T18:45:52.481Z,78.20
2018-08-09T18:48:25.192Z,78.80
2018-08-09T18:50:57.609Z,79.90
2018-08-09T18:53:30.078Z,80.70
2018-08-09T18:56:02.688Z,81.20
2018-08-09T18:58:35.370Z,82.00
2018-08-09T19:01:08.486Z,82.70
2018-08-09T19:03:41.238Z,83.20
2018-08-09T19:06:13.677Z,83.50
2018-08-09T19:08:46.118Z,83.80
2018-08-09T19:11:18.529Z,83.60
2018-08-09T19:13:50.961Z,84.10
2018-08-09T19:16:23.388Z,84.20
2018-08-09T19:18:55.905Z,84.10
2018-08-09T19:21:28.313Z,84.40
2018-08-09T19:24:01.057Z,84.20
2018-08-09T19:26:33.485Z,83.90
2018-08-09T19:29:06.214Z,82.60
2018-08-09T19:31:38.891Z,81.70
2018-08-09T19:34:11.568Z,81.20
2018-08-09T19:36:44.067Z,81.50
2018-08-09T19:39:16.565Z,80.70
2018-08-09T19:41:48.997Z,80.30
2018-08-09T19:44:21.734Z,79.90
2018-08-09T19:46:54.453Z,80.10
2018-08-09T19:49:26.875Z,80.60
2018-08-09T19:51:59.367Z,80.50
2018-08-09T19:54:31.830Z,79.50
2018-08-09T19:57:04.306Z,80.10
2018-08-09T19:59:36.770Z,80.30
2018-08-09T20:02:09.231Z,80.20
2018-08-09T20:04:41.992Z,80.30
2018-08-09T20:07:14.434Z,80.40
2018-08-09T20:09:47.094Z,80.20
2018-08-09T20:12:19.523Z,80.60
2018-08-09T20:14:51.971Z,80.60
2018-08-09T20:17:24.440Z,80.20
2018-08-09T20:19:56.870Z,80.00
2018-08-09T20:22:29.365Z,80.30
2018-08-09T20:25:01.991Z,80.30
2018-08-09T20:27:34.578Z,80.00
2018-08-09T20:30:11.258Z,80.80
2018-08-09T20:32:43.685Z,81.00
2018-08-09T20:35:20.090Z,80.70
2018-08-09T20:37:52.569Z,81.00
2018-08-09T20:40:24.986Z,81.40
2018-08-09T20:42:57.413Z,81.90
2018-08-09T20:45:29.839Z,82.00
2018-08-09T20:48:02.295Z,82.30
2018-08-09T20:50:34.686Z,82.70
2018-08-09T20:53:07.121Z,83.00
2018-08-09T20:55:39.604Z,83.50
2018-08-09T20:58:13.142Z,83.50
2018-08-09T21:00:46.140Z,82.90
2018-08-09T21:03:18.694Z,82.80
2018-08-09T21:05:51.266Z,81.70
2018-08-09T21:08:23.962Z,80.90
2018-08-09T21:10:56.445Z,80.70
2018-08-09T21:13:28.913Z,79.80
2018-08-09T21:16:01.390Z,80.90
2018-08-09T21:18:34.141Z,80.10
2018-08-09T21:21:06.805Z,80.00
2018-08-09T21:23:39.234Z,80.70
2018-08-09T21:26:11.758Z,80.70
2018-08-09T21:28:44.291Z,80.50
2018-08-09T21:31:17.086Z,81.30
2018-08-09T21:33:49.642Z,81.80
2018-08-09T21:36:22.099Z,81.90
2018-08-09T21:38:54.903Z,82.30
2018-08-09T21:41:27.742Z,81.80
2018-08-09T21:44:00.229Z,81.90
2018-08-09T21:46:32.717Z,81.70
2018-08-09T21:49:05.402Z,81.70
2018-08-09T21:51:37.845Z,81.40
2018-08-09T21:54:10.542Z,81.20
2018-08-09T21:56:42.995Z,81.70
2018-08-09T21:59:15.447Z,81.50
2018-08-09T22:01:47.900Z,81.70
2018-08-09T22:04:20.421Z,81.80
2018-08-09T22:06:53.170Z,81.30
2018-08-09T22:09:25.621Z,81.90
2018-08-09T22:11:58.055Z,81.60
2018-08-09T22:14:30.490Z,81.90
2018-08-09T22:17:02.897Z,82.00
2018-08-09T22:19:35.370Z,81.50
2018-08-09T22:22:07.791Z,81.70
2018-08-09T22:24:40.641Z,81.30
2018-08-09T22:27:13.204Z,82.30
2018-08-09T22:29:45.660Z,82.40
2018-08-09T22:32:18.511Z,82.80
2018-08-09T22:34:50.997Z,82.50
2018-08-09T22:37:23.450Z,82.70
2018-08-09T22:39:56.201Z,82.70
2018-08-09T22:42:28.875Z,82.70
2018-08-09T22:45:01.492Z,83.00
2018-08-09T22:47:34.018Z,82.40
2018-08-09T22:50:06.601Z,82.80
2018-08-09T22:52:39.027Z,82.20
2018-08-09T22:55:11.506Z,82.50
2018-08-09T22:57:43.929Z,82.50
2018-08-09T23:00:18.830Z,82.40
2018-08-09T23:02:51.253Z,82.80
2018-08-09T23:05:23.744Z,82.70
2018-08-09T23:07:56.177Z,83.00
2018-08-09T23:10:28.596Z,83.10
2018-08-09T23:13:01.034Z,83.10
2018-08-09T23:15:33.517Z,83.50
2018-08-09T23:18:06.090Z,83.50
2018-08-09T23:20:38.565Z,83.30
2018-08-09T23:23:10.950Z,83.80
2018-08-09T23:25:43.354Z,84.20
2018-08-09T23:28:16.283Z,84.60
2018-08-09T23:30:48.698Z,84.80
2018-08-09T23:33:21.588Z,87.50
2018-08-09T23:35:54.007Z,90.00
2018-08-09T23:38:26.389Z,90.80
2018-08-09T23:40:58.806Z,92.00
2018-08-09T23:43:31.195Z,93.10
2018-08-09T23:46:03.885Z,93.30
2018-08-09T23:48:36.274Z,93.80
2018-08-09T23:51:08.666Z,94.40
2018-08-09T23:53:41.051Z,94.00
2018-08-09T23:56:13.465Z,94.10
2018-08-09T23:58:45.853Z,94.80
